createdAt,value
2017-05-11T00:00:59.732Z,1003.98
2017-05-11T00:02:10.007Z,1003.98
2017-05-11T00:03:19.960Z,1003.96
2017-05-11T00:04:30.233Z,1003.95
2017-05-11T00:05:40.491Z,1003.95
2017-05-11T00:06:50.501Z,1003.93
2017-05-11T00:08:00.137Z,1003.92
2017-05-11T00:09:10.084Z,1003.91
2017-05-11T00:10:20.354Z,1003.93
2017-05-11T00:11:30.310Z,1003.93
2017-05-11T00:12:40.266Z,1003.94
2017-05-11T00:13:50.534Z,1003.95
2017-05-11T00:15:00.796Z,1003.94
2017-05-11T00:16:10.746Z,1003.92
2017-05-11T00:17:21.016Z,1003.94
2017-05-11T00:18:30.964Z,1003.95
2017-05-11T00:19:40.914Z,1003.99
2017-05-11T00:20:50.862Z,1003.97
2017-05-11T00:22:00.817Z,1003.97
2017-05-11T00:23:11.086Z,1003.99
2017-05-11T00:24:21.360Z,1003.97
2017-05-11T00:25:31.315Z,1003.99
2017-05-11T00:26:41.595Z,1003.94
2017-05-11T00:27:51.549Z,1003.92
2017-05-11T00:29:01.809Z,1003.93
2017-05-11T00:30:11.763Z,1003.88
2017-05-11T00:31:22.032Z,1003.89
2017-05-11T00:32:32.025Z,1003.88
2017-05-11T00:33:41.658Z,1003.87
2017-05-11T00:34:51.922Z,1003.9
2017-05-11T00:36:01.561Z,1003.86
2017-05-11T00:37:11.840Z,1003.86
2017-05-11T00:38:22.116Z,1003.83
2017-05-11T00:39:31.754Z,1003.81
2017-05-11T00:40:41.714Z,1003.84
2017-05-11T00:41:51.666Z,1003.82
2017-05-11T00:43:01.927Z,1003.83
2017-05-11T00:44:12.196Z,1003.79
2017-05-11T00:45:21.867Z,1003.81
2017-05-11T00:46:32.136Z,1003.84
2017-05-11T00:47:42.401Z,1003.83
2017-05-11T00:48:52.667Z,1003.85
2017-05-11T00:50:02.936Z,1003.86
2017-05-11T00:51:12.888Z,1003.86
2017-05-11T00:52:23.154Z,1003.87
2017-05-11T00:53:33.426Z,1003.86
2017-05-11T00:54:43.387Z,1003.87
2017-05-11T00:55:53.333Z,1003.88
2017-05-11T00:57:03.594Z,1003.85
2017-05-11T00:58:13.852Z,1003.86
2017-05-11T00:59:24.149Z,1003.82
2017-05-11T01:00:34.425Z,1003.86
2017-05-11T01:01:44.688Z,1003.83
2017-05-11T01:02:54.953Z,1003.83
2017-05-11T01:04:05.218Z,1003.79
2017-05-11T01:05:15.485Z,1003.84
2017-05-11T01:06:25.431Z,1003.81
2017-05-11T01:07:35.691Z,1003.81
2017-05-11T01:08:45.959Z,1003.81
2017-05-11T01:09:55.279Z,1003.81
2017-05-11T01:11:04.917Z,1003.78
2017-05-11T01:12:15.189Z,1003.77
2017-05-11T01:13:25.459Z,1003.79
2017-05-11T01:14:35.723Z,1003.78
2017-05-11T01:15:45.987Z,1003.77
2017-05-11T01:16:56.246Z,1003.8
2017-05-11T01:18:06.191Z,1003.79
2017-05-11T01:19:16.140Z,1003.79
2017-05-11T01:20:26.408Z,1003.8
2017-05-11T01:21:36.044Z,1003.79
2017-05-11T01:22:46.310Z,1003.79
2017-05-11T01:23:55.939Z,1003.76
2017-05-11T01:25:06.211Z,1003.8
2017-05-11T01:26:15.849Z,1003.71
2017-05-11T01:27:26.113Z,1003.74
2017-05-11T01:28:36.064Z,1003.74
2017-05-11T01:29:46.335Z,1003.7
2017-05-11T01:30:56.292Z,1003.75
2017-05-11T01:32:06.253Z,1003.71
2017-05-11T01:33:16.523Z,1003.76
2017-05-11T01:34:26.469Z,1003.75
2017-05-11T01:35:36.416Z,1003.73
2017-05-11T01:36:46.677Z,1003.69
2017-05-11T01:37:56.943Z,1003.68
2017-05-11T01:39:07.240Z,1003.67
2017-05-11T01:40:17.514Z,1003.65
2017-05-11T01:41:27.147Z,1003.64
2017-05-11T01:42:37.407Z,1003.61
2017-05-11T01:43:47.684Z,1003.62
2017-05-11T01:44:57.003Z,1003.6
2017-05-11T01:46:06.323Z,1003.63
2017-05-11T01:47:16.589Z,1003.61
2017-05-11T01:48:26.863Z,1003.6
2017-05-11T01:49:37.124Z,1003.63
2017-05-11T01:50:47.418Z,1003.6
2017-05-11T01:51:57.361Z,1003.62
2017-05-11T01:53:07.321Z,1003.62
2017-05-11T01:54:17.581Z,1003.62
2017-05-11T01:55:27.888Z,1003.62
2017-05-11T01:56:38.150Z,1003.59
2017-05-11T01:57:48.415Z,1003.61
2017-05-11T01:58:58.366Z,1003.58
2017-05-11T02:00:08.309Z,1003.61
2017-05-11T02:01:18.581Z,1003.62
2017-05-11T02:02:28.843Z,1003.59
2017-05-11T02:03:39.114Z,1003.61
2017-05-11T02:04:49.396Z,1003.6
2017-05-11T02:05:59.658Z,1003.61
2017-05-11T02:07:09.923Z,1003.64
2017-05-11T02:08:20.185Z,1003.59
2017-05-11T02:09:30.136Z,1003.61
2017-05-11T02:10:40.409Z,1003.62
2017-05-11T02:11:50.675Z,1003.6
2017-05-11T02:13:00.934Z,1003.56
2017-05-11T02:14:10.882Z,1003.58
2017-05-11T02:15:20.833Z,1003.55
2017-05-11T02:16:30.787Z,1003.56
2017-05-11T02:17:40.742Z,1003.56
2017-05-11T02:18:51.017Z,1003.54
2017-05-11T02:20:01.282Z,1003.52
2017-05-11T02:21:11.547Z,1003.5
2017-05-11T02:22:21.812Z,1003.56
2017-05-11T02:23:31.451Z,1003.52
2017-05-11T02:24:41.413Z,1003.56
2017-05-11T02:25:51.682Z,1003.54
2017-05-11T02:27:01.948Z,1003.5
2017-05-11T02:28:12.216Z,1003.46
2017-05-11T02:29:22.495Z,1003.45
2017-05-11T02:30:32.766Z,1003.45
2017-05-11T02:31:43.031Z,1003.43
2017-05-11T02:32:52.985Z,1003.44
2017-05-11T02:34:03.253Z,1003.41
2017-05-11T02:35:13.519Z,1003.35
2017-05-11T02:36:23.469Z,1003.33
2017-05-11T02:37:33.744Z,1003.3
2017-05-11T02:38:44.107Z,1003.26
2017-05-11T02:39:54.373Z,1003.28
2017-05-11T02:41:04.325Z,1003.23
2017-05-11T02:42:14.589Z,1003.24
2017-05-11T02:43:24.853Z,1003.25
2017-05-11T02:44:35.117Z,1003.27
2017-05-11T02:45:45.071Z,1003.21
2017-05-11T02:46:55.330Z,1003.23
2017-05-11T02:48:05.293Z,1003.24
2017-05-11T02:49:15.249Z,1003.27
2017-05-11T02:50:25.518Z,1003.24
2017-05-11T02:51:35.781Z,1003.29
2017-05-11T02:52:46.049Z,1003.29
2017-05-11T02:53:56.316Z,1003.27
2017-05-11T02:55:06.269Z,1003.27
2017-05-11T02:56:15.909Z,1003.26
2017-05-11T02:57:25.857Z,1003.29
2017-05-11T02:58:36.121Z,1003.24
2017-05-11T02:59:46.078Z,1003.19
2017-05-11T03:00:56.027Z,1003.19
2017-05-11T03:02:05.658Z,1003.2
2017-05-11T03:03:15.645Z,1003.19
2017-05-11T03:04:25.590Z,1003.2
2017-05-11T03:05:35.856Z,1003.22
2017-05-11T03:06:45.804Z,1003.21
2017-05-11T03:07:56.070Z,1003.19
2017-05-11T03:09:06.343Z,1003.23
2017-05-11T03:10:16.615Z,1003.26
2017-05-11T03:11:26.877Z,1003.3
2017-05-11T03:12:37.143Z,1003.26
2017-05-11T03:13:47.097Z,1003.34
2017-05-11T03:14:56.758Z,1003.3
2017-05-11T03:16:06.714Z,1003.3
2017-05-11T03:17:16.668Z,1003.27
2017-05-11T03:18:25.989Z,1003.28
2017-05-11T03:19:36.260Z,1003.26
2017-05-11T03:20:46.215Z,1003.24
2017-05-11T03:21:56.209Z,1003.23
2017-05-11T03:23:06.158Z,1003.3
2017-05-11T03:24:16.425Z,1003.26
2017-05-11T03:25:26.385Z,1003.29
2017-05-11T03:26:36.668Z,1003.29
2017-05-11T03:27:45.992Z,1003.3
2017-05-11T03:28:56.272Z,1003.3
2017-05-11T03:30:06.230Z,1003.31
2017-05-11T03:31:16.178Z,1003.35
2017-05-11T03:32:26.447Z,1003.35
2017-05-11T03:33:36.403Z,1003.32
2017-05-11T03:34:46.361Z,1003.3
2017-05-11T03:35:56.623Z,1003.32
2017-05-11T03:37:06.892Z,1003.31
2017-05-11T03:38:16.854Z,1003.33
2017-05-11T03:39:27.124Z,1003.32
2017-05-11T03:40:36.801Z,1003.32
2017-05-11T03:41:47.063Z,1003.29
2017-05-11T03:42:57.015Z,1003.3
2017-05-11T03:44:07.280Z,1003.28
2017-05-11T03:45:17.543Z,1003.27
2017-05-11T03:46:27.176Z,1003.32
2017-05-11T03:47:37.121Z,1003.25
2017-05-11T03:48:47.076Z,1003.28
2017-05-11T03:49:57.044Z,1003.23
2017-05-11T03:51:07.013Z,1003.26
2017-05-11T03:52:16.966Z,1003.27
2017-05-11T03:53:27.238Z,1003.28
2017-05-11T03:54:37.191Z,1003.22
2017-05-11T03:55:47.144Z,1003.25
2017-05-11T03:56:57.415Z,1003.24
2017-05-11T03:58:07.686Z,1003.28
2017-05-11T03:59:17.950Z,1003.28
2017-05-11T04:00:28.220Z,1003.29
2017-05-11T04:01:38.487Z,1003.32
2017-05-11T04:02:48.791Z,1003.29
2017-05-11T04:03:58.429Z,1003.32
2017-05-11T04:05:08.378Z,1003.33
2017-05-11T04:06:18.012Z,1003.3
2017-05-11T04:07:28.279Z,1003.34
2017-05-11T04:08:38.547Z,1003.37
2017-05-11T04:09:48.819Z,1003.36
2017-05-11T04:10:59.081Z,1003.38
2017-05-11T04:12:09.349Z,1003.43
2017-05-11T04:13:19.615Z,1003.4
2017-05-11T04:14:29.885Z,1003.4
2017-05-11T04:15:39.523Z,1003.39
2017-05-11T04:16:49.594Z,1003.41
2017-05-11T04:17:59.545Z,1003.34
2017-05-11T04:19:09.497Z,1003.32
2017-05-11T04:20:19.764Z,1003.32
2017-05-11T04:21:30.033Z,1003.36
2017-05-11T04:22:40.298Z,1003.37
2017-05-11T04:23:50.569Z,1003.36
2017-05-11T04:25:00.219Z,1003.41
2017-05-11T04:26:10.484Z,1003.4
2017-05-11T04:27:20.432Z,1003.38
2017-05-11T04:28:30.696Z,1003.36
2017-05-11T04:29:40.954Z,1003.35
2017-05-11T04:30:51.221Z,1003.35
2017-05-11T04:32:01.176Z,1003.37
2017-05-11T04:33:11.443Z,1003.43
2017-05-11T04:34:21.399Z,1003.44
2017-05-11T04:35:31.667Z,1003.45
2017-05-11T04:36:41.620Z,1003.42
2017-05-11T04:37:51.573Z,1003.4
2017-05-11T04:39:01.849Z,1003.45
2017-05-11T04:40:11.807Z,1003.41
2017-05-11T04:41:22.069Z,1003.48
2017-05-11T04:42:32.336Z,1003.43
2017-05-11T04:43:41.978Z,1003.46
2017-05-11T04:44:51.935Z,1003.48
2017-05-11T04:46:01.893Z,1003.44
2017-05-11T04:47:11.843Z,1003.43
2017-05-11T04:48:22.104Z,1003.45
2017-05-11T04:49:32.050Z,1003.43
2017-05-11T04:50:42.311Z,1003.44
2017-05-11T04:51:52.582Z,1003.48
2017-05-11T04:53:02.540Z,1003.52
2017-05-11T04:54:12.811Z,1003.5
2017-05-11T04:55:22.767Z,1003.55
2017-05-11T04:56:32.714Z,1003.49
2017-05-11T04:57:42.663Z,1003.5
2017-05-11T04:58:52.301Z,1003.52
2017-05-11T05:00:02.623Z,1003.56
2017-05-11T05:01:12.575Z,1003.56
2017-05-11T05:02:22.203Z,1003.54
2017-05-11T05:03:32.461Z,1003.58
2017-05-11T05:04:42.413Z,1003.58
2017-05-11T05:05:52.363Z,1003.58
2017-05-11T05:07:02.317Z,1003.61
2017-05-11T05:08:12.280Z,1003.62
2017-05-11T05:09:22.237Z,1003.63
2017-05-11T05:10:32.513Z,1003.63
2017-05-11T05:11:42.779Z,1003.63
2017-05-11T05:12:53.045Z,1003.61
2017-05-11T05:14:03.345Z,1003.56
2017-05-11T05:15:12.664Z,1003.57
2017-05-11T05:16:22.927Z,1003.57
2017-05-11T05:17:33.191Z,1003.56
2017-05-11T05:18:43.455Z,1003.59
2017-05-11T05:19:53.720Z,1003.62
2017-05-11T05:21:03.357Z,1003.64
2017-05-11T05:22:13.309Z,1003.63
2017-05-11T05:23:22.945Z,1003.62
2017-05-11T05:24:33.211Z,1003.61
2017-05-11T05:25:43.171Z,1003.59
2017-05-11T05:26:53.134Z,1003.58
2017-05-11T05:28:02.456Z,1003.6
2017-05-11T05:29:12.405Z,1003.6
2017-05-11T05:30:22.352Z,1003.63
2017-05-11T05:31:32.616Z,1003.68
2017-05-11T05:32:42.570Z,1003.66
2017-05-11T05:33:52.832Z,1003.65
2017-05-11T05:35:02.471Z,1003.64
2017-05-11T05:36:12.423Z,1003.68
2017-05-11T05:37:22.696Z,1003.68
2017-05-11T05:38:32.642Z,1003.69
2017-05-11T05:39:42.597Z,1003.72
2017-05-11T05:40:52.866Z,1003.71
2017-05-11T05:42:03.131Z,1003.73
2017-05-11T05:43:12.448Z,1003.73
2017-05-11T05:44:21.773Z,1003.7
2017-05-11T05:45:32.035Z,1003.72
2017-05-11T05:46:42.294Z,1003.71
2017-05-11T05:47:52.246Z,1003.71
2017-05-11T05:49:02.198Z,1003.69
2017-05-11T05:50:11.519Z,1003.71
2017-05-11T05:51:21.782Z,1003.74
2017-05-11T05:52:32.048Z,1003.66
2017-05-11T05:53:41.998Z,1003.68
2017-05-11T05:54:52.266Z,1003.72
2017-05-11T05:56:02.533Z,1003.72
2017-05-11T05:57:12.168Z,1003.7
2017-05-11T05:58:22.436Z,1003.71
2017-05-11T05:59:32.384Z,1003.73
2017-05-11T06:00:42.015Z,1003.73
2017-05-11T06:01:52.317Z,1003.71
2017-05-11T06:03:02.579Z,1003.71
2017-05-11T06:04:12.213Z,1003.71
2017-05-11T06:05:22.162Z,1003.69
2017-05-11T06:06:32.429Z,1003.68
2017-05-11T06:07:42.382Z,1003.68
2017-05-11T06:08:52.337Z,1003.68
2017-05-11T06:10:02.605Z,1003.69
2017-05-11T06:11:12.864Z,1003.67
2017-05-11T06:12:22.814Z,1003.67
2017-05-11T06:13:33.078Z,1003.63
2017-05-11T06:14:43.349Z,1003.63
2017-05-11T06:15:53.300Z,1003.62
2017-05-11T06:17:03.570Z,1003.64
2017-05-11T06:18:13.519Z,1003.67
2017-05-11T06:19:23.175Z,1003.66
2017-05-11T06:20:33.444Z,1003.64
2017-05-11T06:21:43.712Z,1003.67
2017-05-11T06:22:53.663Z,1003.66
2017-05-11T06:24:03.299Z,1003.67
2017-05-11T06:25:13.250Z,1003.66
2017-05-11T06:26:23.201Z,1003.64
2017-05-11T06:27:33.156Z,1003.64
2017-05-11T06:28:43.428Z,1003.62
2017-05-11T06:29:53.381Z,1003.7
2017-05-11T06:31:03.652Z,1003.74
2017-05-11T06:32:13.919Z,1003.71
2017-05-11T06:33:23.872Z,1003.75
2017-05-11T06:34:33.832Z,1003.74
2017-05-11T06:35:44.100Z,1003.72
2017-05-11T06:36:54.362Z,1003.75
2017-05-11T06:38:03.688Z,1003.72
2017-05-11T06:39:13.645Z,1003.74
2017-05-11T06:40:23.907Z,1003.76
2017-05-11T06:41:34.173Z,1003.77
2017-05-11T06:42:44.438Z,1003.75
2017-05-11T06:43:53.811Z,1003.76
2017-05-11T06:45:03.761Z,1003.76
2017-05-11T06:46:13.709Z,1003.75
2017-05-11T06:47:23.661Z,1003.73
2017-05-11T06:48:33.929Z,1003.75
2017-05-11T06:49:44.201Z,1003.76
2017-05-11T06:50:54.463Z,1003.74
2017-05-11T06:52:04.728Z,1003.78
2017-05-11T06:53:15.013Z,1003.74
2017-05-11T06:54:24.958Z,1003.73
2017-05-11T06:55:35.228Z,1003.79
2017-05-11T06:56:45.498Z,1003.73
2017-05-11T06:57:54.828Z,1003.74
2017-05-11T06:59:05.093Z,1003.73
2017-05-11T07:00:15.057Z,1003.73
2017-05-11T07:01:25.007Z,1003.74
2017-05-11T07:02:34.644Z,1003.74
2017-05-11T07:03:44.915Z,1003.73
2017-05-11T07:04:55.184Z,1003.75
2017-05-11T07:06:05.451Z,1003.72
2017-05-11T07:07:15.719Z,1003.71
2017-05-11T07:08:25.994Z,1003.73
2017-05-11T07:09:35.944Z,1003.76
2017-05-11T07:10:46.214Z,1003.75
2017-05-11T07:11:56.480Z,1003.74
2017-05-11T07:13:06.430Z,1003.72
2017-05-11T07:14:16.383Z,1003.71
2017-05-11T07:15:26.653Z,1003.71
2017-05-11T07:16:36.956Z,1003.68
2017-05-11T07:17:47.227Z,1003.65
2017-05-11T07:18:57.214Z,1003.7
2017-05-11T07:20:06.857Z,1003.7
2017-05-11T07:21:17.123Z,1003.69
2017-05-11T07:22:27.079Z,1003.68
2017-05-11T07:23:37.036Z,1003.67
2017-05-11T07:24:47.025Z,1003.62
2017-05-11T07:25:56.977Z,1003.65
2017-05-11T07:27:06.926Z,1003.63
2017-05-11T07:28:16.891Z,1003.66
2017-05-11T07:29:26.842Z,1003.67
2017-05-11T07:30:37.106Z,1003.66
2017-05-11T07:31:47.385Z,1003.64
2017-05-11T07:32:57.652Z,1003.66
2017-05-11T07:34:07.609Z,1003.65
2017-05-11T07:35:17.876Z,1003.62
2017-05-11T07:36:28.141Z,1003.62
2017-05-11T07:37:37.464Z,1003.65
2017-05-11T07:38:47.734Z,1003.61
2017-05-11T07:39:57.685Z,1003.61
2017-05-11T07:41:07.637Z,1003.58
2017-05-11T07:42:17.902Z,1003.56
2017-05-11T07:43:27.850Z,1003.57
2017-05-11T07:44:38.124Z,1003.53
2017-05-11T07:45:48.076Z,1003.52
2017-05-11T07:46:58.023Z,1003.56
2017-05-11T07:48:07.969Z,1003.6
2017-05-11T07:49:17.920Z,1003.6
2017-05-11T07:50:27.877Z,1003.56
2017-05-11T07:51:38.151Z,1003.58
2017-05-11T07:52:48.415Z,1003.6
2017-05-11T07:53:58.683Z,1003.59
2017-05-11T07:55:08.945Z,1003.62
2017-05-11T07:56:19.223Z,1003.58
2017-05-11T07:57:29.172Z,1003.6
2017-05-11T07:58:39.492Z,1003.6
2017-05-11T07:59:49.444Z,1003.58
2017-05-11T08:00:59.728Z,1003.58
2017-05-11T08:02:09.366Z,1003.6
2017-05-11T08:03:19.323Z,1003.61
2017-05-11T08:04:29.277Z,1003.58
2017-05-11T08:05:39.227Z,1003.58
2017-05-11T08:06:49.494Z,1003.59
2017-05-11T08:07:59.448Z,1003.59
2017-05-11T08:09:09.714Z,1003.59
2017-05-11T08:10:19.987Z,1003.56
2017-05-11T08:11:30.255Z,1003.55
2017-05-11T08:12:40.526Z,1003.52
2017-05-11T08:13:50.477Z,1003.53
2017-05-11T08:15:00.431Z,1003.52
2017-05-11T08:16:10.418Z,1003.51
2017-05-11T08:17:20.687Z,1003.47
2017-05-11T08:18:30.637Z,1003.49
2017-05-11T08:19:40.902Z,1003.47
2017-05-11T08:20:50.596Z,1003.49
2017-05-11T08:22:00.557Z,1003.44
2017-05-11T08:23:10.517Z,1003.45
2017-05-11T08:24:20.477Z,1003.47
2017-05-11T08:25:30.745Z,1003.48
2017-05-11T08:26:41.059Z,1003.47
2017-05-11T08:27:51.325Z,1003.48
2017-05-11T08:29:01.278Z,1003.46
2017-05-11T08:30:10.913Z,1003.45
2017-05-11T08:31:21.204Z,1003.44
2017-05-11T08:32:30.857Z,1003.42
2017-05-11T08:33:41.119Z,1003.47
2017-05-11T08:34:51.382Z,1003.46
2017-05-11T08:36:01.337Z,1003.47
2017-05-11T08:37:10.660Z,1003.44
2017-05-11T08:38:20.930Z,1003.42
2017-05-11T08:39:31.198Z,1003.41
2017-05-11T08:40:41.466Z,1003.45
2017-05-11T08:41:51.779Z,1003.43
2017-05-11T08:43:01.728Z,1003.41
2017-05-11T08:44:11.997Z,1003.4
2017-05-11T08:45:22.271Z,1003.4
2017-05-11T08:46:32.543Z,1003.39
2017-05-11T08:47:42.818Z,1003.38
2017-05-11T08:48:52.455Z,1003.37
2017-05-11T08:50:02.414Z,1003.36
2017-05-11T08:51:12.691Z,1003.34
2017-05-11T08:52:22.653Z,1003.34
2017-05-11T08:53:32.926Z,1003.36
2017-05-11T08:54:43.189Z,1003.35
2017-05-11T08:55:52.820Z,1003.35
2017-05-11T08:57:02.145Z,1003.36
2017-05-11T08:58:12.423Z,1003.35
2017-05-11T08:59:22.734Z,1003.3
2017-05-11T09:00:32.690Z,1003.29
2017-05-11T09:01:42.643Z,1003.33
2017-05-11T09:02:52.278Z,1003.3
2017-05-11T09:04:02.237Z,1003.35
2017-05-11T09:05:12.192Z,1003.29
2017-05-11T09:06:22.144Z,1003.29
2017-05-11T09:07:32.100Z,1003.26
2017-05-11T09:08:42.064Z,1003.25
2017-05-11T09:09:51.747Z,1003.26
2017-05-11T09:11:02.014Z,1003.24
2017-05-11T09:12:12.282Z,1003.23
2017-05-11T09:13:22.233Z,1003.25
2017-05-11T09:14:32.503Z,1003.24
2017-05-11T09:15:42.769Z,1003.21
2017-05-11T09:16:52.730Z,1003.19
2017-05-11T09:18:02.370Z,1003.18
2017-05-11T09:19:12.334Z,1003.23
2017-05-11T09:20:22.606Z,1003.2
2017-05-11T09:21:32.566Z,1003.2
2017-05-11T09:22:42.205Z,1003.19
2017-05-11T09:23:52.478Z,1003.16
2017-05-11T09:25:02.434Z,1003.17
2017-05-11T09:26:12.399Z,1003.18
2017-05-11T09:27:22.668Z,1003.18
2017-05-11T09:28:32.623Z,1003.19
2017-05-11T09:29:42.891Z,1003.2
2017-05-11T09:30:52.835Z,1003.16
2017-05-11T09:32:02.787Z,1003.19
2017-05-11T09:33:12.743Z,1003.14
2017-05-11T09:34:22.693Z,1003.13
2017-05-11T09:35:32.962Z,1003.12
2017-05-11T09:36:43.240Z,1003.1
2017-05-11T09:37:53.540Z,1003.08
2017-05-11T09:39:03.818Z,1003.07
2017-05-11T09:40:14.087Z,1003.1
2017-05-11T09:41:24.359Z,1003.1
2017-05-11T09:42:34.314Z,1003.1
2017-05-11T09:43:44.276Z,1003.09
2017-05-11T09:44:53.912Z,1003.09
2017-05-11T09:46:03.872Z,1003.05
2017-05-11T09:47:14.145Z,1003.04
2017-05-11T09:48:23.471Z,1003.04
2017-05-11T09:49:33.422Z,1003.08
2017-05-11T09:50:43.684Z,1003.05
2017-05-11T09:51:53.950Z,1003.02
2017-05-11T09:53:04.223Z,1003.01
2017-05-11T09:54:14.498Z,1003
2017-05-11T09:55:24.443Z,1003.03
2017-05-11T09:56:34.726Z,1002.99
2017-05-11T09:57:44.684Z,1003.02
2017-05-11T09:58:54.325Z,1002.98
2017-05-11T10:00:04.593Z,1002.97
2017-05-11T10:01:14.869Z,1003
2017-05-11T10:02:24.821Z,1002.98
2017-05-11T10:03:34.772Z,1002.95
2017-05-11T10:04:44.720Z,1002.96
2017-05-11T10:05:54.987Z,1002.97
2017-05-11T10:07:04.941Z,1002.93
2017-05-11T10:08:15.215Z,1002.96
2017-05-11T10:09:24.225Z,1002.94
2017-05-11T10:10:34.490Z,1002.96
2017-05-11T10:11:44.438Z,1002.93
2017-05-11T10:12:54.716Z,1002.92
2017-05-11T10:14:04.982Z,1002.92
2017-05-11T10:15:14.627Z,1002.9
2017-05-11T10:16:24.591Z,1002.91
2017-05-11T10:17:34.543Z,1002.88
2017-05-11T10:18:44.834Z,1002.9
2017-05-11T10:19:55.101Z,1002.87
2017-05-11T10:21:05.065Z,1002.87
2017-05-11T10:22:15.334Z,1002.86
2017-05-11T10:23:25.603Z,1002.82
2017-05-11T10:24:35.871Z,1002.85
2017-05-11T10:25:46.134Z,1002.84
2017-05-11T10:26:56.402Z,1002.85
2017-05-11T10:28:06.359Z,1002.82
2017-05-11T10:29:16.309Z,1002.83
2017-05-11T10:30:26.575Z,1002.83
2017-05-11T10:31:36.531Z,1002.82
2017-05-11T10:32:46.487Z,1002.79
2017-05-11T10:33:56.755Z,1002.8
2017-05-11T10:35:07.023Z,1002.78
2017-05-11T10:36:17.291Z,1002.75
2017-05-11T10:37:27.564Z,1002.69
2017-05-11T10:38:37.519Z,1002.72
2017-05-11T10:39:47.785Z,1002.63
2017-05-11T10:40:58.058Z,1002.64
2017-05-11T10:42:08.009Z,1002.61
2017-05-11T10:43:17.950Z,1002.61
2017-05-11T10:44:27.273Z,1002.59
2017-05-11T10:45:37.536Z,1002.57
2017-05-11T10:46:47.800Z,1002.59
2017-05-11T10:47:57.756Z,1002.59
2017-05-11T10:49:07.705Z,1002.49
2017-05-11T10:50:17.975Z,1002.47
2017-05-11T10:51:27.926Z,1002.47
2017-05-11T10:52:38.189Z,1002.46
2017-05-11T10:53:48.456Z,1002.48
2017-05-11T10:54:58.413Z,1002.45
2017-05-11T10:56:08.363Z,1002.45
2017-05-11T10:57:17.996Z,1002.41
2017-05-11T10:58:27.633Z,1002.42
2017-05-11T10:59:37.270Z,1002.39
2017-05-11T11:00:47.224Z,1002.38
2017-05-11T11:01:57.174Z,1002.38
2017-05-11T11:03:07.439Z,1002.36
2017-05-11T11:04:17.393Z,1002.34
2017-05-11T11:05:27.665Z,1002.36
2017-05-11T11:06:37.619Z,1002.33
2017-05-11T11:07:47.881Z,1002.37
2017-05-11T11:08:57.874Z,1002.39
2017-05-11T11:10:07.874Z,1002.36
2017-05-11T11:11:17.515Z,1002.37
2017-05-11T11:12:27.159Z,1002.33
2017-05-11T11:13:37.432Z,1002.26
2017-05-11T11:14:47.696Z,1002.31
2017-05-11T11:15:57.960Z,1002.26
2017-05-11T11:17:08.223Z,1002.24
2017-05-11T11:18:17.852Z,1002.27
2017-05-11T11:19:28.117Z,1002.22
2017-05-11T11:20:38.383Z,1002.25
2017-05-11T11:21:48.342Z,1002.21
2017-05-11T11:22:58.608Z,1002.21
2017-05-11T11:24:08.559Z,1002.22
2017-05-11T11:25:18.827Z,1002.22
2017-05-11T11:26:28.459Z,1002.22
2017-05-11T11:27:38.415Z,1002.27
2017-05-11T11:28:48.674Z,1002.2
2017-05-11T11:29:58.309Z,1002.17
2017-05-11T11:31:08.297Z,1002.18
2017-05-11T11:32:18.562Z,1002.15
2017-05-11T11:33:28.513Z,1002.09
2017-05-11T11:34:38.463Z,1002.06
2017-05-11T11:35:48.735Z,1002.1
2017-05-11T11:36:58.689Z,1002.07
2017-05-11T11:38:08.641Z,1002.06
2017-05-11T11:39:18.605Z,1002.07
2017-05-11T11:40:28.870Z,1002.07
2017-05-11T11:41:39.141Z,1002.05
2017-05-11T11:42:49.095Z,1002.06
2017-05-11T11:43:59.357Z,1002.06
2017-05-11T11:45:08.993Z,1002.04
2017-05-11T11:46:19.264Z,1002.04
2017-05-11T11:47:29.214Z,1002.06
2017-05-11T11:48:39.162Z,1002.07
2017-05-11T11:49:49.470Z,1002.04
2017-05-11T11:50:59.740Z,1002.01
2017-05-11T11:52:09.378Z,1001.98
2017-05-11T11:53:19.337Z,1001.97
2017-05-11T11:54:29.282Z,1001.9
2017-05-11T11:55:39.233Z,1001.96
2017-05-11T11:56:49.191Z,1001.93
2017-05-11T11:57:59.457Z,1001.94
2017-05-11T11:59:09.735Z,1001.9
2017-05-11T12:00:19.691Z,1001.91
2017-05-11T12:01:29.642Z,1001.92
2017-05-11T12:02:39.906Z,1001.9
2017-05-11T12:03:50.222Z,1001.9
2017-05-11T12:05:00.490Z,1001.88
2017-05-11T12:06:10.133Z,1001.88
2017-05-11T12:07:20.101Z,1001.88
2017-05-11T12:08:30.383Z,1001.82
2017-05-11T12:09:40.334Z,1001.87
2017-05-11T12:10:50.598Z,1001.85
2017-05-11T12:12:00.555Z,1001.9
2017-05-11T12:13:10.186Z,1001.9
2017-05-11T12:14:20.132Z,1001.88
2017-05-11T12:15:30.081Z,1001.93
2017-05-11T12:16:40.343Z,1001.87
2017-05-11T12:17:50.290Z,1001.86
2017-05-11T12:19:00.240Z,1001.83
2017-05-11T12:20:10.202Z,1001.81
2017-05-11T12:21:20.469Z,1001.86
2017-05-11T12:22:30.421Z,1001.77
2017-05-11T12:23:40.705Z,1001.73
2017-05-11T12:24:50.977Z,1001.74
2017-05-11T12:26:00.612Z,1001.74
2017-05-11T12:27:10.246Z,1001.78
2017-05-11T12:28:20.509Z,1001.77
2017-05-11T12:29:30.462Z,1001.81
2017-05-11T12:30:40.412Z,1001.71
2017-05-11T12:31:50.048Z,1001.72
2017-05-11T12:33:00.309Z,1001.68
2017-05-11T12:34:10.255Z,1001.72
2017-05-11T12:35:20.207Z,1001.73
2017-05-11T12:36:30.471Z,1001.67
2017-05-11T12:37:40.423Z,1001.69
2017-05-11T12:38:50.377Z,1001.69
2017-05-11T12:40:00.325Z,1001.69
2017-05-11T12:41:10.279Z,1001.66
2017-05-11T12:42:20.238Z,1001.66
2017-05-11T12:43:30.502Z,1001.63
2017-05-11T12:44:40.764Z,1001.61
2017-05-11T12:45:50.716Z,1001.61
2017-05-11T12:47:00.665Z,1001.6
2017-05-11T12:48:10.616Z,1001.62
2017-05-11T12:49:20.567Z,1001.64
2017-05-11T12:50:30.204Z,1001.64
2017-05-11T12:51:40.473Z,1001.65
2017-05-11T12:52:50.420Z,1001.59
2017-05-11T12:54:00.689Z,1001.55
2017-05-11T12:55:10.636Z,1001.52
2017-05-11T12:56:20.274Z,1001.52
2017-05-11T12:57:30.244Z,1001.49
2017-05-11T12:58:40.207Z,1001.46
2017-05-11T12:59:50.472Z,1001.48
2017-05-11T13:01:00.106Z,1001.49
2017-05-11T13:02:10.057Z,1001.46
2017-05-11T13:03:20.326Z,1001.36
2017-05-11T13:04:30.275Z,1001.31
2017-05-11T13:05:40.234Z,1001.32
2017-05-11T13:06:50.497Z,1001.38
2017-05-11T13:08:00.134Z,1001.29
2017-05-11T13:09:10.393Z,1001.31
2017-05-11T13:10:20.659Z,1001.31
2017-05-11T13:11:30.294Z,1001.31
2017-05-11T13:12:40.550Z,1001.24
2017-05-11T13:13:50.190Z,1001.27
2017-05-11T13:15:00.136Z,1001.27
2017-05-11T13:16:10.401Z,1001.26
2017-05-11T13:17:20.039Z,1001.26
2017-05-11T13:18:30.300Z,1001.22
2017-05-11T13:19:40.575Z,1001.18
2017-05-11T13:20:50.893Z,1001.2
2017-05-11T13:22:00.229Z,1001.18
2017-05-11T13:23:09.862Z,1001.18
2017-05-11T13:24:19.499Z,1001.21
2017-05-11T13:25:29.447Z,1001.18
2017-05-11T13:26:39.719Z,1001.18
2017-05-11T13:27:49.980Z,1001.13
2017-05-11T13:29:00.248Z,1001.02
2017-05-11T13:30:10.200Z,1001.08
2017-05-11T13:31:20.459Z,1001.1
2017-05-11T13:32:30.410Z,1001.07
2017-05-11T13:33:40.046Z,1001.1
2017-05-11T13:34:49.685Z,1001.07
2017-05-11T13:35:59.950Z,1001.05
2017-05-11T13:37:09.920Z,1001.03
2017-05-11T13:38:19.868Z,1001.02
2017-05-11T13:39:29.826Z,1001.03
2017-05-11T13:40:40.085Z,1001.09
2017-05-11T13:41:50.061Z,1001.07
2017-05-11T13:43:00.331Z,1001.04
2017-05-11T13:44:10.288Z,1001.1
2017-05-11T13:45:20.275Z,1001.08
2017-05-11T13:46:30.222Z,1001.04
2017-05-11T13:47:40.481Z,1001.04
2017-05-11T13:48:50.751Z,1000.99
2017-05-11T13:50:00.719Z,1000.97
2017-05-11T13:51:10.357Z,1001
2017-05-11T13:52:20.312Z,1000.97
2017-05-11T13:53:30.270Z,1000.94
2017-05-11T13:54:39.910Z,1000.94
2017-05-11T13:55:51.061Z,1000.91
2017-05-11T13:57:01.330Z,1000.91
2017-05-11T13:58:11.286Z,1000.9
2017-05-11T13:59:21.548Z,1000.9
2017-05-11T14:00:31.815Z,1000.88
2017-05-11T14:01:42.084Z,1000.86
2017-05-11T14:02:52.359Z,1000.85
2017-05-11T14:04:02.629Z,1000.85
2017-05-11T14:05:12.592Z,1000.82
2017-05-11T14:06:22.548Z,1000.88
2017-05-11T14:07:32.818Z,1000.84
2017-05-11T14:08:42.774Z,1000.84
2017-05-11T14:09:52.726Z,1000.88
2017-05-11T14:11:02.700Z,1000.85